Primera, Texas
Current Conditions -  °F | °C
As of 6:52 AM on Thursday 23 Oct 2014 (Local Time) from KHRL Reporting Station
Clear Clear  
Wind Chill: 19°   Ceiling: Unl
Heat Index: 19°   Visibility: 7mi
Dew Point: 18°   Wind: 6mph
Humidity: 96%   Direction: 340°NNW
Pressure: 30.02"   Gusts: NA
Location:  26.2089°N, 97.6849°W
Report Text: KHRL 231152Z 34005KT 7SM CLR 19/18 A3002 RMK AO2 SLP164 70009 T01890183 10206 20183 53005
Loading
Personal Weather Stations






























Interactive Weather Map
Tropical Storm Tracking
New forecast layout! Learn more

10-Day Weather Forecast

Advertisements
Track Severe Weather on mobile